Hundvaag 1 weather for Jul 1995
Month no. 97
Obs.
Da.
Temp. Dew Point Precip. Wind
Speed
Wind gusts Cloud cover Press. Humidity Wind dir. Sunny OPT
01.07.1995 12,1   2,4     0       1  
02.07.1995 13,8   0,0     0          
03.07.1995 10,3   3,2     0          
04.07.1995 9,4   1,1     0       1  
05.07.1995 9,0   2,0     8       1  
06.07.1995 12,7   7,8     0          
07.07.1995 13,7   1,9     2       1  
08.07.1995 11,8   2,2     10       1  
09.07.1995 12,4   0,0     10       1  
10.07.1995 12,9   0,0     10       1  
11.07.1995 15,4   0,0     10       1  
12.07.1995 13,4   0,0     10       1  
13.07.1995 16,0   0,0     9       1  
14.07.1995 14,8   21,2     0       1  
15.07.1995 15,4   8,1     0          
16.07.1995 16,4   0,0     10       1  
17.07.1995 15,0   5,8     7       1  
18.07.1995 17,3   0,0     10       1  
19.07.1995 13,7   0,0     10       1  
20.07.1995 17,0   5,8     8       1  
21.07.1995 16,0   6,8     7       1  
22.07.1995 14,2   18,9     0       1  
23.07.1995 14,7   1,0     5       1  
24.07.1995 12,4   6,6     0          
25.07.1995 12,7   1,6     9       1  
26.07.1995 16,7   0,0     10       1  
27.07.1995 21,4   0,0     10       1  
28.07.1995 16,7   0,0     0       1  
29.07.1995 20,0   0,6     10       1  
30.07.1995 19,0   0,0     10       1  
31.07.1995 15,6   0,0     10       1  
Avrg/Sum 14,6   97,0     6,0       26